createdAt,value
2023-03-30T00:00:51.779Z,100208.50
2023-03-30T00:03:24.199Z,100202.56
2023-03-30T00:05:56.842Z,100190.53
2023-03-30T00:08:28.769Z,100198.19
2023-03-30T00:11:04.190Z,100147.75
2023-03-30T00:13:35.417Z,100187.97
2023-03-30T00:16:05.805Z,100178.59
2023-03-30T00:18:39.627Z,100157.16
2023-03-30T00:21:11.313Z,100167.47
2023-03-30T00:23:42.338Z,100171.63
2023-03-30T00:26:13.258Z,100164.91
2023-03-30T00:28:43.070Z,100152.91
2023-03-30T00:31:13.501Z,100163.22
2023-03-30T00:33:47.933Z,100154.72
2023-03-30T00:36:18.006Z,100150.47
2023-03-30T00:38:48.534Z,100150.47
2023-03-30T00:41:19.296Z,100128.19
2023-03-30T00:44:03.478Z,100147.03
2023-03-30T00:46:33.884Z,100151.31
2023-03-30T00:49:09.154Z,100126.50
2023-03-30T00:51:41.856Z,100146.25
2023-03-30T00:54:15.648Z,100148.88
2023-03-30T00:56:46.311Z,100144.66
2023-03-30T00:59:16.818Z,100147.25
2023-03-30T01:01:50.299Z,100130.16
2023-03-30T01:04:22.798Z,100126.78
2023-03-30T01:06:52.747Z,100131.88
2023-03-30T01:09:22.883Z,100131.91
2023-03-30T01:11:52.715Z,100079.75
2023-03-30T01:14:22.494Z,100091.72
2023-03-30T01:17:01.659Z,100088.34
2023-03-30T01:20:15.323Z,100090.88
2023-03-30T01:23:15.909Z,100093.41
2023-03-30T01:26:09.799Z,100090.84
2023-03-30T01:28:48.414Z,100056.69
2023-03-30T01:31:44.618Z,100055.88
2023-03-30T01:34:53.018Z,100056.75
2023-03-30T01:37:53.050Z,100059.25
2023-03-30T01:40:32.385Z,100061.84
2023-03-30T01:43:08.600Z,100031.97
2023-03-30T01:45:47.295Z,100058.38
2023-03-30T01:48:23.952Z,100059.28
2023-03-30T01:50:57.478Z,100037.97
2023-03-30T01:53:35.113Z,100030.31
2023-03-30T01:56:15.665Z,100030.38
2023-03-30T01:58:50.398Z,100021.00
2023-03-30T02:01:23.329Z,100038.91
2023-03-30T02:03:58.318Z,100026.16
2023-03-30T02:06:38.968Z,100027.03
2023-03-30T02:09:11.459Z,100009.03
2023-03-30T02:11:47.639Z,100016.78
2023-03-30T02:14:20.093Z,99998.03
2023-03-30T02:16:52.159Z,99948.66
2023-03-30T02:19:22.675Z,99947.72
2023-03-30T02:21:53.119Z,99969.94
2023-03-30T02:24:31.675Z,99954.59
2023-03-30T02:27:04.849Z,99936.72
2023-03-30T02:29:37.814Z,99960.63
2023-03-30T02:32:08.615Z,99909.38
2023-03-30T02:34:55.978Z,99964.00
2023-03-30T02:37:45.513Z,99968.31
2023-03-30T02:40:27.686Z,99969.97
2023-03-30T02:43:13.415Z,99953.78
2023-03-30T02:45:53.998Z,99972.56
2023-03-30T02:48:36.402Z,99949.50
2023-03-30T02:51:17.387Z,99955.53
2023-03-30T02:54:26.644Z,99949.53
2023-03-30T02:57:25.149Z,99945.28
2023-03-30T03:00:07.616Z,99949.56
2023-03-30T03:02:43.214Z,99963.25
2023-03-30T03:05:27.684Z,99938.53
2023-03-30T03:08:09.326Z,99958.22
2023-03-30T03:10:39.369Z,99940.31
2023-03-30T03:13:10.169Z,99944.56
2023-03-30T03:15:45.760Z,99959.94
2023-03-30T03:18:16.152Z,99945.44
2023-03-30T03:20:46.339Z,99945.44
2023-03-30T03:23:16.149Z,99936.06
2023-03-30T03:25:52.547Z,99955.69
2023-03-30T03:28:23.295Z,99959.09
2023-03-30T03:31:03.932Z,99962.50
2023-03-30T03:33:34.686Z,99948.84
2023-03-30T03:36:12.338Z,99929.22
2023-03-30T03:38:48.393Z,99946.28
2023-03-30T03:41:19.422Z,99934.31
2023-03-30T03:43:49.647Z,99945.41
2023-03-30T03:46:25.014Z,99895.09
2023-03-30T03:48:54.861Z,99938.63
2023-03-30T03:51:24.732Z,99917.28
2023-03-30T03:53:54.534Z,99940.31
2023-03-30T03:56:25.372Z,99918.97
2023-03-30T03:58:55.716Z,99908.75
2023-03-30T04:01:30.158Z,99885.69
2023-03-30T04:04:00.676Z,99925.78
2023-03-30T04:06:30.581Z,99904.44
2023-03-30T04:09:01.294Z,99893.38
2023-03-30T04:11:49.811Z,99903.59
2023-03-30T04:14:38.069Z,99876.31
2023-03-30T04:17:28.987Z,99886.53
2023-03-30T04:19:59.257Z,99869.50
2023-03-30T04:22:53.584Z,99860.09
2023-03-30T04:25:25.897Z,99832.81
2023-03-30T04:28:22.074Z,99861.81
2023-03-30T04:31:13.173Z,99875.44
2023-03-30T04:34:12.088Z,99885.63
2023-03-30T04:37:02.053Z,99885.63
2023-03-30T04:39:57.800Z,99883.94
2023-03-30T04:43:02.354Z,99866.03
2023-03-30T04:45:52.192Z,99886.47
2023-03-30T04:48:40.854Z,99889.06
2023-03-30T04:51:42.804Z,99880.53
2023-03-30T04:54:41.851Z,99885.66
2023-03-30T04:57:24.246Z,99894.19
2023-03-30T05:00:32.093Z,99876.28
2023-03-30T05:03:23.018Z,99880.53
2023-03-30T05:06:03.236Z,99886.50
2023-03-30T05:08:48.595Z,99870.28
2023-03-30T05:11:34.176Z,99874.56
2023-03-30T05:14:19.664Z,99867.78
2023-03-30T05:17:20.925Z,99851.59
2023-03-30T05:19:59.569Z,99865.22
2023-03-30T05:22:49.673Z,99865.19
2023-03-30T05:25:40.574Z,99867.75
2023-03-30T05:28:31.780Z,99862.66
2023-03-30T05:31:25.515Z,99843.91
2023-03-30T05:34:10.383Z,99871.97
2023-03-30T05:37:05.356Z,99850.69
2023-03-30T05:39:38.041Z,99877.94
2023-03-30T05:42:28.850Z,99862.56
2023-03-30T05:45:17.614Z,99884.72
2023-03-30T05:48:01.283Z,99882.13
2023-03-30T05:50:50.357Z,99877.00
2023-03-30T05:53:32.851Z,99875.28
2023-03-30T05:56:35.215Z,99852.22
2023-03-30T05:59:35.965Z,99870.91
2023-03-30T06:02:24.834Z,99868.25
2023-03-30T06:05:01.761Z,99870.75
2023-03-30T06:07:34.194Z,99853.63
2023-03-30T06:10:04.385Z,99867.19
2023-03-30T06:12:34.710Z,99860.28
2023-03-30T06:15:09.682Z,99859.19
2023-03-30T06:17:52.943Z,99814.81
2023-03-30T06:20:24.719Z,99837.03
2023-03-30T06:22:55.711Z,99807.34
2023-03-30T06:25:27.776Z,99825.25
2023-03-30T06:27:58.261Z,99838.97
2023-03-30T06:30:31.393Z,99852.53
2023-03-30T06:33:05.389Z,99857.66
2023-03-30T06:35:46.779Z,99836.31
2023-03-30T06:38:17.677Z,99843.06
2023-03-30T06:40:47.917Z,99843.91
2023-03-30T06:43:20.414Z,99854.06
2023-03-30T06:46:12.794Z,99848.97
2023-03-30T06:48:46.948Z,99857.53
2023-03-30T06:51:39.245Z,99858.53
2023-03-30T06:54:09.948Z,99874.78
2023-03-30T06:56:43.272Z,99843.25
2023-03-30T06:59:17.020Z,99877.41
2023-03-30T07:02:08.128Z,99879.06
2023-03-30T07:05:11.000Z,99866.34
2023-03-30T07:07:53.562Z,99848.38
2023-03-30T07:10:24.653Z,99867.88
2023-03-30T07:12:54.809Z,99865.31
2023-03-30T07:15:26.575Z,99866.94
2023-03-30T07:17:58.998Z,99867.75
2023-03-30T07:20:30.310Z,99850.69
2023-03-30T07:23:16.734Z,99836.19
2023-03-30T07:25:48.727Z,99825.13
2023-03-30T07:28:27.236Z,99855.00
2023-03-30T07:30:57.065Z,99862.56
2023-03-30T07:33:29.971Z,99846.22
2023-03-30T07:36:00.727Z,99846.19
2023-03-30T07:38:31.198Z,99859.75
2023-03-30T07:41:01.363Z,99838.53
2023-03-30T07:43:32.179Z,99842.78
2023-03-30T07:46:01.946Z,99847.13
2023-03-30T07:48:39.249Z,99852.19
2023-03-30T07:51:11.019Z,99830.06
2023-03-30T07:53:50.295Z,99869.13
2023-03-30T07:56:27.233Z,99855.59
2023-03-30T07:59:01.006Z,99842.78
2023-03-30T08:01:34.887Z,99869.13
2023-03-30T08:04:39.756Z,99843.44
2023-03-30T08:07:09.981Z,99873.19
2023-03-30T08:09:40.970Z,99865.41
2023-03-30T08:12:10.828Z,99856.94
2023-03-30T08:14:43.455Z,99870.53
2023-03-30T08:17:13.188Z,99852.81
2023-03-30T08:19:45.818Z,99863.81
2023-03-30T08:22:15.607Z,99867.09
2023-03-30T08:24:45.578Z,99850.06
2023-03-30T08:27:15.311Z,99879.84
2023-03-30T08:29:45.082Z,99863.59
2023-03-30T08:32:14.825Z,99872.03
2023-03-30T08:34:47.469Z,99875.31
2023-03-30T08:37:17.212Z,99863.44
2023-03-30T08:39:46.949Z,99867.66
2023-03-30T08:42:40.919Z,99868.25
2023-03-30T08:45:12.976Z,99876.66
2023-03-30T08:47:49.118Z,99819.84
2023-03-30T08:50:33.099Z,99873.38
2023-03-30T08:53:03.306Z,99879.53
2023-03-30T08:55:37.916Z,99893.50
2023-03-30T08:58:16.035Z,99874.53
2023-03-30T09:00:50.123Z,99883.09
2023-03-30T09:03:27.310Z,99879.59
2023-03-30T09:06:07.872Z,99888.03
2023-03-30T09:08:37.723Z,99879.63
2023-03-30T09:11:15.097Z,99871.16
2023-03-30T09:13:48.205Z,99876.31
2023-03-30T09:16:23.894Z,99888.16
2023-03-30T09:18:57.629Z,99872.94
2023-03-30T09:21:32.378Z,99865.31
2023-03-30T09:24:04.754Z,99889.22
2023-03-30T09:26:43.820Z,99853.63
2023-03-30T09:29:17.359Z,99878.16
2023-03-30T09:31:51.518Z,99891.66
2023-03-30T09:34:30.043Z,99891.81
2023-03-30T09:37:07.727Z,99904.53
2023-03-30T09:39:38.746Z,99894.50
2023-03-30T09:42:17.891Z,99899.91
2023-03-30T09:44:51.399Z,99898.94
2023-03-30T09:47:27.978Z,99905.72
2023-03-30T09:49:59.957Z,99897.16
2023-03-30T09:52:37.368Z,99905.78
2023-03-30T09:55:29.950Z,99904.31
2023-03-30T09:58:17.626Z,99921.66
2023-03-30T10:00:48.308Z,99883.28
2023-03-30T10:03:24.390Z,99914.81
2023-03-30T10:06:05.758Z,99926.84
2023-03-30T10:08:44.944Z,99904.78
2023-03-30T10:11:14.756Z,99914.22
2023-03-30T10:13:46.343Z,99942.41
2023-03-30T10:16:26.425Z,99930.56
2023-03-30T10:18:58.000Z,99920.44
2023-03-30T10:21:29.809Z,99927.25
2023-03-30T10:24:08.321Z,99919.59
2023-03-30T10:26:44.334Z,99929.81
2023-03-30T10:29:16.520Z,99941.72
2023-03-30T10:31:48.883Z,99922.91
2023-03-30T10:34:21.326Z,99913.53
2023-03-30T10:36:56.150Z,99935.59
2023-03-30T10:39:33.008Z,99928.75
2023-03-30T10:42:05.060Z,99897.25
2023-03-30T10:44:38.216Z,99943.13
2023-03-30T10:47:32.234Z,99938.75
2023-03-30T10:50:10.979Z,99924.19
2023-03-30T10:52:59.130Z,99910.63
2023-03-30T10:55:38.344Z,99941.19
2023-03-30T10:58:22.723Z,99942.06
2023-03-30T11:01:09.119Z,99914.63
2023-03-30T11:03:41.673Z,99922.25
2023-03-30T11:06:17.441Z,99914.41
2023-03-30T11:08:50.557Z,99904.06
2023-03-30T11:11:26.309Z,99941.50
2023-03-30T11:14:02.052Z,99900.47
2023-03-30T11:16:45.204Z,99919.69
2023-03-30T11:19:20.023Z,99936.88
2023-03-30T11:21:57.986Z,99937.50
2023-03-30T11:24:30.766Z,99929.72
2023-03-30T11:27:09.794Z,99916.63
2023-03-30T11:29:45.827Z,99902.22
2023-03-30T11:32:26.661Z,99915.25
2023-03-30T11:35:08.830Z,99929.72
2023-03-30T11:37:45.305Z,99916.94
2023-03-30T11:40:19.419Z,99923.56
2023-03-30T11:42:52.305Z,99862.97
2023-03-30T11:45:36.347Z,99914.84
2023-03-30T11:48:20.190Z,99888.19
2023-03-30T11:51:05.073Z,99918.09
2023-03-30T11:53:40.456Z,99884.69
2023-03-30T11:56:13.195Z,99892.91
2023-03-30T11:58:50.398Z,99870.25
2023-03-30T12:01:33.109Z,99866.28
2023-03-30T12:04:10.869Z,99912.31
2023-03-30T12:06:43.167Z,99905.44
2023-03-30T12:09:26.670Z,99908.75
2023-03-30T12:12:01.867Z,99919.88
2023-03-30T12:15:04.853Z,99922.00
2023-03-30T12:17:50.412Z,99919.78
2023-03-30T12:20:31.657Z,99920.06
2023-03-30T12:23:12.610Z,99928.66
2023-03-30T12:25:52.421Z,99917.66
2023-03-30T12:28:38.683Z,99931.94
2023-03-30T12:31:19.915Z,99937.63
2023-03-30T12:33:51.664Z,99936.16
2023-03-30T12:36:27.406Z,99976.94
2023-03-30T12:39:02.381Z,99958.69
2023-03-30T12:41:44.811Z,99950.22
2023-03-30T12:44:46.024Z,99960.44
2023-03-30T12:47:35.906Z,99950.09
2023-03-30T12:50:32.012Z,99926.78
2023-03-30T12:53:15.042Z,99944.59
2023-03-30T12:55:48.820Z,99931.69
2023-03-30T12:58:58.437Z,99882.16
2023-03-30T13:01:46.555Z,99933.94
2023-03-30T13:04:22.543Z,99919.91
2023-03-30T13:06:55.917Z,99917.97
2023-03-30T13:09:35.898Z,99928.78
2023-03-30T13:12:38.455Z,99931.09
2023-03-30T13:15:34.802Z,99929.38
2023-03-30T13:18:06.715Z,99924.16
2023-03-30T13:20:39.852Z,99946.53
2023-03-30T13:23:28.589Z,99887.00
2023-03-30T13:26:08.444Z,99927.69
2023-03-30T13:28:57.186Z,99936.94
2023-03-30T13:31:44.325Z,99926.66
2023-03-30T13:34:24.656Z,99933.34
2023-03-30T13:37:03.709Z,99940.28
2023-03-30T13:39:42.523Z,99945.38
2023-03-30T13:42:38.018Z,99905.38
2023-03-30T13:45:18.973Z,99941.16
2023-03-30T13:48:00.581Z,99878.47
2023-03-30T13:50:32.246Z,99922.63
2023-03-30T13:53:11.100Z,99936.84
2023-03-30T13:55:42.566Z,99918.88
2023-03-30T13:58:18.310Z,99927.19
2023-03-30T14:00:51.773Z,99917.03
2023-03-30T14:03:37.416Z,99940.09
2023-03-30T14:06:09.818Z,99930.13
2023-03-30T14:08:45.174Z,99958.44
2023-03-30T14:11:18.487Z,99944.22
2023-03-30T14:13:52.361Z,99931.59
2023-03-30T14:16:25.174Z,99948.53
2023-03-30T14:18:56.601Z,99946.97
2023-03-30T14:21:27.101Z,99903.44
2023-03-30T14:23:59.695Z,99944.13
2023-03-30T14:26:31.908Z,99926.16
2023-03-30T14:29:05.361Z,99943.91
2023-03-30T14:31:42.226Z,99914.97
2023-03-30T14:34:29.172Z,99938.00
2023-03-30T14:37:03.090Z,99936.28
2023-03-30T14:39:41.192Z,99937.97
2023-03-30T14:42:18.966Z,99948.38
2023-03-30T14:44:51.589Z,99935.03
2023-03-30T14:47:23.968Z,99952.94
2023-03-30T14:49:56.130Z,99964.88
2023-03-30T14:52:30.937Z,99970.75
2023-03-30T14:55:08.526Z,99976.81
2023-03-30T14:57:42.236Z,99991.75
2023-03-30T15:00:21.029Z,99957.69
2023-03-30T15:02:54.674Z,99978.97
2023-03-30T15:05:26.983Z,99910.88
2023-03-30T15:07:56.803Z,99957.75
2023-03-30T15:10:36.890Z,99991.81
2023-03-30T15:13:09.484Z,100003.06
2023-03-30T15:15:39.359Z,100013.50
2023-03-30T15:18:09.560Z,100019.84
2023-03-30T15:20:39.496Z,100026.78
2023-03-30T15:23:09.329Z,100017.41
2023-03-30T15:25:42.060Z,100012.97
2023-03-30T15:28:19.274Z,99998.97
2023-03-30T15:30:53.533Z,99997.06
2023-03-30T15:33:25.952Z,99996.25
2023-03-30T15:35:56.652Z,99982.59
2023-03-30T15:38:35.455Z,99956.22
2023-03-30T15:41:12.164Z,99976.72
2023-03-30T15:43:56.311Z,99974.13
2023-03-30T15:46:28.173Z,99988.66
2023-03-30T15:49:00.564Z,99983.31
2023-03-30T15:51:36.160Z,99977.19
2023-03-30T15:54:12.971Z,99960.69
2023-03-30T15:56:51.067Z,99964.81
2023-03-30T15:59:23.670Z,99945.16
2023-03-30T16:01:56.469Z,99960.41
2023-03-30T16:04:27.531Z,99945.53
2023-03-30T16:06:57.945Z,99936.56
2023-03-30T16:09:27.816Z,99971.72
2023-03-30T16:12:01.340Z,99956.56
2023-03-30T16:14:33.997Z,99979.72
2023-03-30T16:17:04.580Z,99949.97
2023-03-30T16:19:34.336Z,99959.34
2023-03-30T16:22:04.047Z,99974.66
2023-03-30T16:24:33.808Z,99975.69
2023-03-30T16:27:06.212Z,99976.63
2023-03-30T16:29:36.208Z,99981.72
2023-03-30T16:32:06.094Z,99974.97
2023-03-30T16:34:36.048Z,100004.00
2023-03-30T16:37:06.227Z,99990.38
2023-03-30T16:39:36.820Z,100003.25
2023-03-30T16:42:09.222Z,100015.22
2023-03-30T16:44:39.212Z,100017.75
2023-03-30T16:47:09.039Z,99997.31
2023-03-30T16:49:39.044Z,100000.78
2023-03-30T16:52:08.995Z,100024.69
2023-03-30T16:54:38.715Z,100011.84
2023-03-30T16:57:12.793Z,100009.34
2023-03-30T16:59:42.699Z,100020.44
2023-03-30T17:02:18.185Z,100023.00
2023-03-30T17:04:49.114Z,100026.47
2023-03-30T17:07:18.836Z,100018.75
2023-03-30T17:09:48.538Z,100023.00
2023-03-30T17:12:20.843Z,100006.78
2023-03-30T17:14:50.700Z,100011.94
2023-03-30T17:17:20.444Z,100019.59
2023-03-30T17:19:50.207Z,100023.88
2023-03-30T17:22:19.941Z,99984.63
2023-03-30T17:24:49.629Z,100027.31
2023-03-30T17:27:22.327Z,100016.19
2023-03-30T17:29:52.086Z,100015.34
2023-03-30T17:32:21.910Z,100025.59
2023-03-30T17:34:51.667Z,100010.19
2023-03-30T17:37:21.389Z,100029.00
2023-03-30T17:39:51.115Z,100009.34
2023-03-30T17:42:23.490Z,99999.13
2023-03-30T17:44:53.274Z,100014.50
2023-03-30T17:47:23.012Z,100017.88
2023-03-30T17:49:52.732Z,99997.44
2023-03-30T17:52:22.477Z,99962.47
2023-03-30T17:54:52.203Z,100015.41
2023-03-30T17:57:24.642Z,100006.84
2023-03-30T17:59:54.449Z,100023.88
2023-03-30T18:02:24.219Z,100028.16
2023-03-30T18:04:53.999Z,100030.75
2023-03-30T18:07:23.756Z,100030.75
2023-03-30T18:09:53.987Z,100025.63
2023-03-30T18:12:26.343Z,100035.88
2023-03-30T18:14:56.260Z,100035.00
2023-03-30T18:17:26.248Z,100038.41
2023-03-30T18:19:56.078Z,100011.97
2023-03-30T18:22:26.214Z,100052.09
2023-03-30T18:24:56.201Z,100008.59
2023-03-30T18:27:28.630Z,99983.81
2023-03-30T18:29:58.610Z,100013.72
2023-03-30T18:32:40.588Z,100033.31
2023-03-30T18:35:16.779Z,100048.66
2023-03-30T18:37:47.085Z,100045.22
2023-03-30T18:40:22.707Z,100029.88
2023-03-30T18:42:56.956Z,100031.59
2023-03-30T18:45:29.235Z,100032.41
2023-03-30T18:48:00.572Z,100032.41
2023-03-30T18:50:39.964Z,100049.50
2023-03-30T18:53:12.240Z,100050.31
2023-03-30T18:55:44.016Z,100029.78
2023-03-30T18:58:20.343Z,100057.16
2023-03-30T19:00:51.872Z,100038.34
2023-03-30T19:03:22.996Z,100064.84
2023-03-30T19:05:53.348Z,100060.56
2023-03-30T19:08:25.011Z,100027.22
2023-03-30T19:10:57.688Z,100040.94
2023-03-30T19:13:30.055Z,100061.44
2023-03-30T19:16:00.416Z,100063.97
2023-03-30T19:18:30.204Z,100039.25
2023-03-30T19:21:00.012Z,100045.19
2023-03-30T19:23:30.259Z,100064.88
2023-03-30T19:26:00.111Z,100050.31
2023-03-30T19:28:33.481Z,100054.63
2023-03-30T19:31:07.321Z,100066.56
2023-03-30T19:33:37.285Z,100040.09
2023-03-30T19:36:08.465Z,100022.97
2023-03-30T19:38:39.096Z,100046.91
2023-03-30T19:41:11.918Z,100036.66
2023-03-30T19:43:45.693Z,100066.56
2023-03-30T19:46:15.536Z,100046.09
2023-03-30T19:48:45.292Z,100065.69
2023-03-30T19:51:15.116Z,100052.03
2023-03-30T19:53:44.874Z,100059.72
2023-03-30T19:56:16.142Z,100065.69
2023-03-30T19:58:48.553Z,100068.25
2023-03-30T20:01:18.288Z,100048.56
2023-03-30T20:03:48.107Z,100050.28
2023-03-30T20:06:17.831Z,100068.19
2023-03-30T20:08:47.622Z,100063.88
2023-03-30T20:11:17.385Z,100062.19
2023-03-30T20:13:49.742Z,100067.31
2023-03-30T20:16:22.680Z,100064.75
2023-03-30T20:18:54.745Z,100061.31
2023-03-30T20:21:26.313Z,100033.16
2023-03-30T20:23:58.723Z,100041.63
2023-03-30T20:26:29.416Z,100057.03
2023-03-30T20:29:02.635Z,100038.28
2023-03-30T20:31:32.649Z,100028.06
2023-03-30T20:34:02.430Z,100034.88
2023-03-30T20:36:32.360Z,100020.38
2023-03-30T20:39:02.169Z,100032.28
2023-03-30T20:41:38.210Z,100038.25
2023-03-30T20:44:13.982Z,100029.72
2023-03-30T20:46:44.646Z,100022.81
2023-03-30T20:49:15.921Z,100047.59
2023-03-30T20:51:46.632Z,100033.06
2023-03-30T20:54:16.822Z,100033.06
2023-03-30T20:56:46.656Z,100036.41
2023-03-30T20:59:19.037Z,100011.69
2023-03-30T21:01:50.069Z,100019.34
2023-03-30T21:04:19.888Z,100037.22
2023-03-30T21:06:49.815Z,100027.00
2023-03-30T21:09:20.961Z,100007.31
2023-03-30T21:11:50.833Z,100030.38
2023-03-30T21:14:24.233Z,100027.88
2023-03-30T21:16:54.018Z,100042.34
2023-03-30T21:19:23.929Z,100003.88
2023-03-30T21:21:53.691Z,99989.38
2023-03-30T21:24:23.444Z,100034.69
2023-03-30T21:26:53.225Z,100001.44
2023-03-30T21:29:26.161Z,100021.06
2023-03-30T21:31:57.880Z,100015.97
2023-03-30T21:34:27.558Z,100005.75
2023-03-30T21:36:57.512Z,100013.47
2023-03-30T21:39:27.408Z,100002.34
2023-03-30T21:41:57.143Z,100010.06
2023-03-30T21:44:29.458Z,100000.69
2023-03-30T21:46:59.217Z,100006.63
2023-03-30T21:49:28.943Z,99935.81
2023-03-30T21:51:58.719Z,100006.69
2023-03-30T21:54:28.424Z,99996.47
2023-03-30T21:56:58.142Z,99975.94
2023-03-30T21:59:30.646Z,99979.38
2023-03-30T22:02:00.512Z,99963.19
2023-03-30T22:04:30.288Z,99971.75
2023-03-30T22:07:00.027Z,99971.72
2023-03-30T22:09:29.769Z,99972.59
2023-03-30T22:11:59.494Z,99984.53
2023-03-30T22:14:31.872Z,99964.91
2023-03-30T22:17:01.672Z,99957.25
2023-03-30T22:19:32.161Z,99961.53
2023-03-30T22:22:01.888Z,99982.84
2023-03-30T22:24:31.755Z,99956.41
2023-03-30T22:27:01.480Z,99981.97
2023-03-30T22:29:33.916Z,99973.47
2023-03-30T22:32:06.630Z,99976.88
2023-03-30T22:34:38.344Z,99976.00
2023-03-30T22:37:08.086Z,99964.91
2023-03-30T22:39:39.135Z,99956.34
2023-03-30T22:42:09.007Z,99962.38
2023-03-30T22:44:41.421Z,99964.06
2023-03-30T22:47:11.481Z,99957.19
2023-03-30T22:49:41.937Z,99963.22
2023-03-30T22:52:11.712Z,99955.53
2023-03-30T22:54:41.479Z,99964.94
2023-03-30T22:57:11.480Z,99957.28
2023-03-30T22:59:44.490Z,99946.16
2023-03-30T23:02:14.212Z,99941.03
2023-03-30T23:04:44.238Z,99929.97
2023-03-30T23:07:14.325Z,99951.28
2023-03-30T23:09:47.596Z,99944.44
2023-03-30T23:12:17.634Z,99950.44
2023-03-30T23:14:49.938Z,99932.56
2023-03-30T23:17:19.682Z,99938.50
2023-03-30T23:19:50.054Z,99941.09
2023-03-30T23:22:19.759Z,99931.69
2023-03-30T23:24:49.534Z,99927.44
2023-03-30T23:27:19.446Z,99940.22
2023-03-30T23:29:52.898Z,99917.22
2023-03-30T23:32:22.614Z,99926.56
2023-03-30T23:34:52.389Z,99918.03
2023-03-30T23:37:22.134Z,99926.56
2023-03-30T23:39:51.955Z,99894.16
2023-03-30T23:42:22.808Z,99927.41
2023-03-30T23:44:55.350Z,99916.31
2023-03-30T23:47:25.192Z,99921.47
2023-03-30T23:49:55.020Z,99926.56
2023-03-30T23:52:24.725Z,99887.28
2023-03-30T23:54:54.759Z,99918.88
2023-03-30T23:57:24.507Z,99915.47
2023-03-30T23:59:56.927Z,99906.91
